createdAt,value
2018-07-15T00:01:07.607Z,4.10
2018-07-15T00:04:11.246Z,4.83
2018-07-15T00:07:14.864Z,4.20
2018-07-15T00:10:18.460Z,4.83
2018-07-15T00:13:22.042Z,5.20
2018-07-15T00:16:25.594Z,4.70
2018-07-15T00:19:29.217Z,5.33
2018-07-15T00:22:32.809Z,4.33
2018-07-15T00:25:36.781Z,5.17
2018-07-15T00:28:40.333Z,5.73
2018-07-15T00:31:43.975Z,4.97
2018-07-15T00:34:47.664Z,5.00
2018-07-15T00:37:51.454Z,5.07
2018-07-15T00:40:55.142Z,6.17
2018-07-15T00:43:58.763Z,5.73
2018-07-15T00:47:02.336Z,6.43
2018-07-15T00:50:06.131Z,9.07
2018-07-15T00:53:09.805Z,5.27
2018-07-15T00:56:13.434Z,6.30
2018-07-15T00:59:17.123Z,5.30
2018-07-15T01:02:20.763Z,8.70
2018-07-15T01:05:24.439Z,7.70
2018-07-15T01:08:28.236Z,6.37
2018-07-15T01:11:31.803Z,5.67
2018-07-15T01:14:35.325Z,4.70
2018-07-15T01:17:39.200Z,5.63
2018-07-15T01:20:42.867Z,4.47
2018-07-15T01:23:46.501Z,5.17
2018-07-15T01:26:50.390Z,7.17
2018-07-15T01:29:54.009Z,5.47
2018-07-15T01:32:57.701Z,6.40
2018-07-15T01:36:01.305Z,5.40
2018-07-15T01:39:05.648Z,6.27
2018-07-15T01:42:09.253Z,5.20
2018-07-15T01:45:12.821Z,6.10
2018-07-15T01:48:16.344Z,6.53
2018-07-15T01:51:19.940Z,7.33
2018-07-15T01:54:23.454Z,7.43
2018-07-15T01:57:27.046Z,14.03
2018-07-15T02:00:30.561Z,8.43
2018-07-15T02:03:34.219Z,8.87
2018-07-15T02:06:37.839Z,8.83
2018-07-15T02:09:41.364Z,11.07
2018-07-15T02:12:45.940Z,8.90
2018-07-15T02:15:49.695Z,10.67
2018-07-15T02:18:53.288Z,9.50
2018-07-15T02:21:56.819Z,9.57
2018-07-15T02:25:00.501Z,10.90
2018-07-15T02:28:04.189Z,6.77
2018-07-15T02:31:07.799Z,7.60
2018-07-15T02:34:11.564Z,8.57
2018-07-15T02:37:15.172Z,7.70
2018-07-15T02:40:18.739Z,6.30
2018-07-15T02:43:22.244Z,6.90
2018-07-15T02:46:25.809Z,7.37
2018-07-15T02:49:29.398Z,7.97
2018-07-15T02:52:32.957Z,6.70
2018-07-15T02:55:36.532Z,7.27
2018-07-15T02:58:40.066Z,6.30
2018-07-15T03:01:43.819Z,6.37
2018-07-15T03:04:47.375Z,7.30
2018-07-15T03:07:51.130Z,5.83
2018-07-15T03:10:54.680Z,6.33
2018-07-15T03:13:58.316Z,6.07
2018-07-15T03:17:01.932Z,4.90
2018-07-15T03:20:05.569Z,7.13
2018-07-15T03:23:09.380Z,7.33
2018-07-15T03:26:12.944Z,5.20
2018-07-15T03:29:16.630Z,4.83
2018-07-15T03:32:20.166Z,6.30
2018-07-15T03:35:23.801Z,5.97
2018-07-15T03:38:27.375Z,4.87
2018-07-15T03:41:30.920Z,6.70
2018-07-15T03:44:34.560Z,7.27
2018-07-15T03:47:38.104Z,6.80
2018-07-15T03:50:41.735Z,4.87
2018-07-15T03:53:45.377Z,6.00
2018-07-15T03:56:49.942Z,5.10
2018-07-15T03:59:53.667Z,7.00
2018-07-15T04:02:57.260Z,9.93
2018-07-15T04:06:00.876Z,9.03
2018-07-15T04:09:05.418Z,8.80
2018-07-15T04:12:09.146Z,9.10
2018-07-15T04:15:12.751Z,8.60
2018-07-15T04:18:16.316Z,9.17
2018-07-15T04:21:19.917Z,7.63
2018-07-15T04:24:23.666Z,9.03
2018-07-15T04:27:27.277Z,8.90
2018-07-15T04:30:30.927Z,8.67
2018-07-15T04:33:34.620Z,8.90
2018-07-15T04:36:38.250Z,7.37
2018-07-15T04:39:41.937Z,7.53
2018-07-15T04:42:45.717Z,8.03
2018-07-15T04:45:49.211Z,7.30
2018-07-15T04:48:52.789Z,6.97
2018-07-15T04:51:56.480Z,6.53
2018-07-15T04:55:00.197Z,7.63
2018-07-15T04:58:03.806Z,6.77
2018-07-15T05:01:07.556Z,9.50
2018-07-15T05:04:12.461Z,7.13
2018-07-15T05:07:16.047Z,7.00
2018-07-15T05:10:19.733Z,6.20
2018-07-15T05:13:23.305Z,6.67
2018-07-15T05:16:26.891Z,6.90
2018-07-15T05:19:30.597Z,7.60
2018-07-15T05:22:34.281Z,6.90
2018-07-15T05:25:37.991Z,6.80
2018-07-15T05:28:41.669Z,11.23
2018-07-15T05:31:45.331Z,8.10
2018-07-15T05:34:49.041Z,8.13
2018-07-15T05:37:52.677Z,8.43
2018-07-15T05:40:56.343Z,9.57
2018-07-15T05:44:00.068Z,7.00
2018-07-15T05:47:03.681Z,9.50
2018-07-15T05:50:07.383Z,7.43
2018-07-15T05:53:10.967Z,7.37
2018-07-15T05:56:14.507Z,6.97
2018-07-15T05:59:18.097Z,6.60
2018-07-15T06:02:21.678Z,7.77
2018-07-15T06:05:25.272Z,7.50
2018-07-15T06:08:28.898Z,10.70
2018-07-15T06:11:32.591Z,8.33
2018-07-15T06:14:36.161Z,6.53
2018-07-15T06:17:39.800Z,8.20
2018-07-15T06:20:43.531Z,7.13
2018-07-15T06:23:47.288Z,7.30
2018-07-15T06:26:50.914Z,6.83
2018-07-15T06:29:54.602Z,6.50
2018-07-15T06:32:58.317Z,7.23
2018-07-15T06:36:01.973Z,7.10
2018-07-15T06:39:07.262Z,6.73
2018-07-15T06:42:11.952Z,9.17
2018-07-15T06:45:15.667Z,6.40
2018-07-15T06:48:19.389Z,6.20
2018-07-15T06:51:23.108Z,6.10
2018-07-15T06:54:26.678Z,8.83
2018-07-15T06:57:30.357Z,6.70
2018-07-15T07:00:34.203Z,7.87
2018-07-15T07:03:37.811Z,6.90
2018-07-15T07:06:41.372Z,8.20
2018-07-15T07:09:45.085Z,6.90
2018-07-15T07:12:48.823Z,5.90
2018-07-15T07:15:52.504Z,6.97
2018-07-15T07:18:56.044Z,9.13
2018-07-15T07:21:59.758Z,6.87
2018-07-15T07:25:03.674Z,6.50
2018-07-15T07:28:07.285Z,6.43
2018-07-15T07:31:10.953Z,7.33
2018-07-15T07:34:14.530Z,8.10
2018-07-15T07:37:18.184Z,9.90
2018-07-15T07:40:21.783Z,6.23
2018-07-15T07:43:25.458Z,7.43
2018-07-15T07:46:29.252Z,6.17
2018-07-15T07:49:32.862Z,6.70
2018-07-15T07:52:36.490Z,6.40
2018-07-15T07:55:40.065Z,7.00
2018-07-15T07:58:43.618Z,8.00
2018-07-15T08:01:47.323Z,6.40
2018-07-15T08:04:50.932Z,9.97
2018-07-15T08:07:54.648Z,6.57
2018-07-15T08:10:58.285Z,8.13
2018-07-15T08:14:01.908Z,6.33
2018-07-15T08:17:05.588Z,6.40
2018-07-15T08:20:09.193Z,5.80
2018-07-15T08:23:13.328Z,5.53
2018-07-15T08:26:17.118Z,5.80
2018-07-15T08:29:20.827Z,7.57
2018-07-15T08:32:24.464Z,4.83
2018-07-15T08:35:28.123Z,6.13
2018-07-15T08:38:31.740Z,5.30
2018-07-15T08:41:35.834Z,5.30
2018-07-15T08:44:39.528Z,4.53
2018-07-15T08:47:43.198Z,3.67
2018-07-15T08:50:46.749Z,6.43
2018-07-15T08:53:50.400Z,4.67
2018-07-15T08:56:54.133Z,3.60
2018-07-15T08:59:57.714Z,3.80
2018-07-15T09:03:01.501Z,4.07
2018-07-15T09:06:05.299Z,3.63
2018-07-15T09:09:08.938Z,5.27
2018-07-15T09:12:12.684Z,4.07
2018-07-15T09:15:16.280Z,3.27
2018-07-15T09:18:19.946Z,4.30
2018-07-15T09:21:23.563Z,3.83
2018-07-15T09:24:27.423Z,4.53
2018-07-15T09:27:30.927Z,3.00
2018-07-15T09:30:34.663Z,4.17
2018-07-15T09:33:38.274Z,4.33
2018-07-15T09:36:41.976Z,3.30
2018-07-15T09:39:45.598Z,2.90
2018-07-15T09:42:49.220Z,5.07
2018-07-15T09:45:52.799Z,4.00
2018-07-15T09:48:56.624Z,4.13
2018-07-15T09:52:00.245Z,3.90
2018-07-15T09:55:03.851Z,4.30
2018-07-15T09:58:07.526Z,3.57
2018-07-15T10:01:11.075Z,3.57
2018-07-15T10:04:14.685Z,3.37
2018-07-15T10:07:18.264Z,4.00
2018-07-15T10:10:21.963Z,3.47
2018-07-15T10:13:25.557Z,3.27
2018-07-15T10:16:29.213Z,5.93
2018-07-15T10:19:32.823Z,4.00
2018-07-15T10:22:36.489Z,3.30
2018-07-15T10:25:40.226Z,3.80
2018-07-15T10:28:43.884Z,3.10
2018-07-15T10:31:47.480Z,5.70
2018-07-15T10:34:51.248Z,3.10
2018-07-15T10:37:54.901Z,3.17
2018-07-15T10:40:58.521Z,3.00
2018-07-15T10:44:02.199Z,2.97
2018-07-15T10:47:05.885Z,6.33
2018-07-15T10:50:09.702Z,2.90
2018-07-15T10:53:13.326Z,3.23
2018-07-15T10:56:17.033Z,2.97
2018-07-15T10:59:20.690Z,2.90
2018-07-15T11:02:24.291Z,4.00
2018-07-15T11:05:28.015Z,2.57
2018-07-15T11:08:31.698Z,2.40
2018-07-15T11:11:35.344Z,4.20
2018-07-15T11:14:39.260Z,2.90
2018-07-15T11:17:42.968Z,2.23
2018-07-15T11:20:46.683Z,2.47
2018-07-15T11:23:50.543Z,2.20
2018-07-15T11:26:54.153Z,3.33
2018-07-15T11:29:57.806Z,2.30
2018-07-15T11:33:01.464Z,2.60
2018-07-15T11:36:05.370Z,2.20
2018-07-15T11:39:09.815Z,2.13
2018-07-15T11:42:13.404Z,5.13
2018-07-15T11:45:17.162Z,3.27
2018-07-15T11:48:20.858Z,2.60
2018-07-15T11:51:24.577Z,3.27
2018-07-15T11:54:28.310Z,2.73
2018-07-15T11:57:31.907Z,2.70
2018-07-15T12:00:35.590Z,2.30
2018-07-15T12:03:39.316Z,3.00
2018-07-15T12:06:43.069Z,2.37
2018-07-15T12:09:46.771Z,2.50
2018-07-15T12:12:50.506Z,2.47
2018-07-15T12:15:54.311Z,8.80
2018-07-15T12:18:58.189Z,3.23
2018-07-15T12:22:01.809Z,2.57
2018-07-15T12:25:05.596Z,4.00
2018-07-15T12:28:09.211Z,2.50
2018-07-15T12:31:12.966Z,2.80
2018-07-15T12:34:16.555Z,3.40
2018-07-15T12:37:20.210Z,2.30
2018-07-15T12:40:23.828Z,2.50
2018-07-15T12:43:27.591Z,3.43
2018-07-15T12:46:31.286Z,2.70
2018-07-15T12:49:35.070Z,2.30
2018-07-15T12:52:38.796Z,3.63
2018-07-15T12:55:42.373Z,2.70
2018-07-15T12:58:46.136Z,2.30
2018-07-15T13:01:49.997Z,2.20
2018-07-15T13:04:53.770Z,4.03
2018-07-15T13:07:57.476Z,3.50
2018-07-15T13:11:01.412Z,2.63
2018-07-15T13:14:05.133Z,3.00
2018-07-15T13:17:08.986Z,5.93
2018-07-15T13:20:12.778Z,2.80
2018-07-15T13:23:16.672Z,3.20
2018-07-15T13:26:20.645Z,2.83
2018-07-15T13:29:24.299Z,2.90
2018-07-15T13:32:28.016Z,4.60
2018-07-15T13:35:31.933Z,2.87
2018-07-15T13:38:35.732Z,2.60
2018-07-15T13:41:39.427Z,2.67
2018-07-15T13:44:43.049Z,2.73
2018-07-15T13:47:47.949Z,2.83
2018-07-15T13:50:51.648Z,4.03
2018-07-15T13:53:55.329Z,3.23
2018-07-15T13:56:59.005Z,2.60
2018-07-15T14:00:02.722Z,2.60
2018-07-15T14:03:06.454Z,2.87
2018-07-15T14:06:10.254Z,4.40
2018-07-15T14:09:13.904Z,2.40
2018-07-15T14:12:17.604Z,2.80
2018-07-15T14:15:21.423Z,3.40
2018-07-15T14:18:25.121Z,3.17
2018-07-15T14:21:28.729Z,2.47
2018-07-15T14:24:32.596Z,2.73
2018-07-15T14:27:36.277Z,2.47
2018-07-15T14:30:39.944Z,2.53
2018-07-15T14:33:43.553Z,2.50
2018-07-15T14:36:47.287Z,3.60
2018-07-15T14:39:50.937Z,2.40
2018-07-15T14:42:54.712Z,4.77
2018-07-15T14:45:58.346Z,2.53
2018-07-15T14:49:02.107Z,2.30
2018-07-15T14:52:05.918Z,2.83
2018-07-15T14:55:09.531Z,2.50
2018-07-15T14:58:13.238Z,2.37
2018-07-15T15:01:16.882Z,2.60
2018-07-15T15:04:20.594Z,2.90
2018-07-15T15:07:24.219Z,2.40
2018-07-15T15:10:27.923Z,2.53
2018-07-15T15:13:31.663Z,2.10
2018-07-15T15:16:35.512Z,2.67
2018-07-15T15:19:39.289Z,2.47
2018-07-15T15:22:42.928Z,2.37
2018-07-15T15:25:46.812Z,2.20
2018-07-15T15:28:50.433Z,4.10
2018-07-15T15:31:54.207Z,2.80
2018-07-15T15:34:57.988Z,3.17
2018-07-15T15:38:01.633Z,2.67
2018-07-15T15:41:12.035Z,3.50
2018-07-15T15:44:15.680Z,2.47
2018-07-15T15:47:19.312Z,2.90
2018-07-15T15:50:23.092Z,2.50
2018-07-15T15:53:26.883Z,2.10
2018-07-15T15:56:30.668Z,3.40
2018-07-15T15:59:34.723Z,2.57
2018-07-15T16:02:38.414Z,3.23
2018-07-15T16:05:42.039Z,2.93
2018-07-15T16:08:45.659Z,2.33
2018-07-15T16:11:49.775Z,3.77
2018-07-15T16:14:53.342Z,2.40
2018-07-15T16:17:57.143Z,2.70
2018-07-15T16:21:00.839Z,2.07
2018-07-15T16:24:04.545Z,2.50
2018-07-15T16:27:08.238Z,2.30
2018-07-15T16:30:11.959Z,2.67
2018-07-15T16:33:15.555Z,2.50
2018-07-15T16:36:19.383Z,4.87
2018-07-15T16:39:23.058Z,2.80
2018-07-15T16:42:26.690Z,2.57
2018-07-15T16:45:30.324Z,2.37
2018-07-15T16:48:34.034Z,2.37
2018-07-15T16:51:37.684Z,4.10
2018-07-15T16:54:41.520Z,2.57
2018-07-15T16:57:45.282Z,2.67
2018-07-15T17:00:48.892Z,2.53
2018-07-15T17:03:52.522Z,3.03
2018-07-15T17:06:56.202Z,2.20
2018-07-15T17:09:59.748Z,2.90
2018-07-15T17:13:03.460Z,2.10
2018-07-15T17:16:07.269Z,1.87
2018-07-15T17:19:11.024Z,2.27
2018-07-15T17:22:17.683Z,2.80
2018-07-15T17:25:21.575Z,2.00
2018-07-15T17:28:25.261Z,2.27
2018-07-15T17:31:28.948Z,2.93
2018-07-15T17:34:32.614Z,3.67
2018-07-15T17:37:36.324Z,2.27
2018-07-15T17:40:39.989Z,1.70
2018-07-15T17:43:44.016Z,2.33
2018-07-15T17:46:47.731Z,2.17
2018-07-15T17:49:51.393Z,2.30
2018-07-15T17:52:55.074Z,2.50
2018-07-15T17:55:58.719Z,1.97
2018-07-15T17:59:02.473Z,3.23
2018-07-15T18:02:06.175Z,2.40
2018-07-15T18:05:09.833Z,2.00
2018-07-15T18:08:13.540Z,2.30
2018-07-15T18:11:17.106Z,2.37
2018-07-15T18:14:20.796Z,2.67
2018-07-15T18:17:24.461Z,2.73
2018-07-15T18:20:28.183Z,2.23
2018-07-15T18:23:32.065Z,4.70
2018-07-15T18:26:35.964Z,2.80
2018-07-15T18:29:39.620Z,3.20
2018-07-15T18:32:43.585Z,4.20
2018-07-15T18:35:47.358Z,3.00
2018-07-15T18:38:51.093Z,2.80
2018-07-15T18:41:54.988Z,3.50
2018-07-15T18:44:59.259Z,3.63
2018-07-15T18:48:03.250Z,2.77
2018-07-15T18:51:07.305Z,3.33
2018-07-15T18:54:11.201Z,2.97
2018-07-15T18:57:14.899Z,4.30
2018-07-15T19:00:19.689Z,4.60
2018-07-15T19:03:23.295Z,2.83
2018-07-15T19:06:27.056Z,2.80
2018-07-15T19:09:30.685Z,3.30
2018-07-15T19:12:34.451Z,3.00
2018-07-15T19:15:38.074Z,3.73
2018-07-15T19:18:41.761Z,5.60
2018-07-15T19:21:45.477Z,3.77
2018-07-15T19:24:49.435Z,3.17
2018-07-15T19:27:53.286Z,3.13
2018-07-15T19:30:57.013Z,3.33
2018-07-15T19:37:25.980Z,4.73
2018-07-15T19:40:30.500Z,3.77
2018-07-15T19:43:35.034Z,3.23
2018-07-15T19:46:38.712Z,3.43
2018-07-15T19:49:42.396Z,3.50
2018-07-15T19:52:47.245Z,3.40
2018-07-15T19:55:50.864Z,3.10
2018-07-15T19:58:54.655Z,3.53
2018-07-15T20:01:58.334Z,3.47
2018-07-15T20:05:01.956Z,3.50
2018-07-15T20:08:05.831Z,3.30
2018-07-15T20:11:09.714Z,4.63
2018-07-15T20:14:13.566Z,7.43
2018-07-15T20:17:17.356Z,4.20
2018-07-15T20:20:21.184Z,5.00
2018-07-15T20:23:25.083Z,5.00
2018-07-15T20:26:28.705Z,3.53
2018-07-15T20:29:32.428Z,3.77
2018-07-15T20:32:36.143Z,3.53
2018-07-15T20:35:39.837Z,3.80
2018-07-15T20:38:43.475Z,3.40
2018-07-15T20:41:47.426Z,4.97
2018-07-15T20:44:51.100Z,3.60
2018-07-15T20:47:56.950Z,4.80
2018-07-15T20:51:00.686Z,3.50
2018-07-15T20:54:04.533Z,3.60
2018-07-15T20:57:08.387Z,4.33
2018-07-15T21:00:12.460Z,3.60
2018-07-15T21:03:16.046Z,3.30
2018-07-15T21:06:19.776Z,9.40
2018-07-15T21:09:23.449Z,4.43
2018-07-15T21:12:27.020Z,3.87
2018-07-15T21:15:30.721Z,3.67
2018-07-15T21:18:34.409Z,3.70
2018-07-15T21:21:38.032Z,3.97
2018-07-15T21:24:42.101Z,3.80
2018-07-15T21:27:45.772Z,5.23
2018-07-15T21:30:49.446Z,3.60
2018-07-15T21:33:53.156Z,3.50
2018-07-15T21:36:56.807Z,7.50
2018-07-15T21:40:00.580Z,4.07
2018-07-15T21:43:04.184Z,4.80
2018-07-15T21:46:07.947Z,5.37
2018-07-15T21:49:11.576Z,6.30
2018-07-15T21:52:15.218Z,4.53
2018-07-15T21:55:18.872Z,5.57
2018-07-15T21:58:22.507Z,3.97
2018-07-15T22:01:41.846Z,4.40
2018-07-15T22:04:45.615Z,6.63
2018-07-15T22:08:00.401Z,5.50
2018-07-15T22:11:04.068Z,7.30
2018-07-15T22:14:07.826Z,7.10
2018-07-15T22:17:11.625Z,4.40
2018-07-15T22:20:15.383Z,7.27
2018-07-15T22:23:19.229Z,6.80
2018-07-15T22:26:22.917Z,4.70
2018-07-15T22:29:26.565Z,3.83
2018-07-15T22:32:30.235Z,4.87
2018-07-15T22:35:33.983Z,8.73
2018-07-15T22:38:37.618Z,4.60
2018-07-15T22:41:41.220Z,3.93
2018-07-15T22:44:44.855Z,3.47
2018-07-15T22:47:48.541Z,4.30
2018-07-15T22:50:52.217Z,3.90
2018-07-15T22:53:55.936Z,4.00
2018-07-15T22:56:59.584Z,6.80
2018-07-15T23:00:03.307Z,3.77
2018-07-15T23:03:07.132Z,3.50
2018-07-15T23:06:17.959Z,3.87
2018-07-15T23:09:21.716Z,4.57
2018-07-15T23:12:25.393Z,5.23
2018-07-15T23:15:29.373Z,6.80
2018-07-15T23:18:33.006Z,4.83
2018-07-15T23:21:36.783Z,7.67
2018-07-15T23:24:40.479Z,6.17
2018-07-15T23:27:44.156Z,4.10
2018-07-15T23:30:47.808Z,5.00
2018-07-15T23:33:51.501Z,4.30
2018-07-15T23:36:55.107Z,6.67
2018-07-15T23:39:58.912Z,3.63
2018-07-15T23:43:02.942Z,5.30
2018-07-15T23:46:06.596Z,4.37
2018-07-15T23:49:10.234Z,4.30
2018-07-15T23:52:13.838Z,5.17
2018-07-15T23:55:17.573Z,4.70
2018-07-15T23:58:21.466Z,5.53
